createdAt,value
2022-12-18T00:02:05.884Z,50.03
2022-12-18T00:06:24.818Z,43.97
2022-12-18T00:10:42.129Z,39.75
2022-12-18T00:14:59.330Z,41.83
2022-12-18T00:19:17.638Z,39.72
2022-12-18T00:23:36.691Z,47.78
2022-12-18T00:27:54.104Z,50.67
2022-12-18T00:32:11.228Z,41.05
2022-12-18T00:36:32.813Z,52.25
2022-12-18T00:40:50.125Z,42.25
2022-12-18T00:45:12.293Z,42.17
2022-12-18T00:49:30.195Z,39.05
2022-12-18T00:53:47.347Z,36.25
2022-12-18T00:58:04.606Z,38.38
2022-12-18T01:02:21.899Z,37.45
2022-12-18T01:06:39.273Z,41.33
2022-12-18T01:10:57.358Z,36.67
2022-12-18T01:15:15.614Z,39.88
2022-12-18T01:19:33.029Z,30.92
2022-12-18T01:23:57.500Z,35.45
2022-12-18T01:28:14.817Z,37.13
2022-12-18T01:32:32.900Z,36.20
2022-12-18T01:36:50.206Z,33.80
2022-12-18T01:41:08.030Z,36.60
2022-12-18T01:45:28.634Z,32.75
2022-12-18T01:49:45.827Z,31.92
2022-12-18T01:54:03.120Z,29.60
2022-12-18T01:58:24.102Z,25.00
2022-12-18T02:02:43.866Z,30.02
2022-12-18T02:07:21.026Z,31.40
2022-12-18T02:11:55.834Z,21.00
2022-12-18T02:16:50.437Z,21.83
2022-12-18T02:21:46.704Z,21.70
2022-12-18T02:26:08.343Z,22.50
2022-12-18T02:30:26.749Z,25.85
2022-12-18T02:34:45.346Z,20.02
2022-12-18T02:39:04.712Z,22.98
2022-12-18T02:43:21.970Z,23.95
2022-12-18T02:47:43.060Z,23.08
2022-12-18T02:52:17.149Z,22.25
2022-12-18T02:56:43.601Z,24.65
2022-12-18T03:01:19.714Z,25.70
2022-12-18T03:05:58.803Z,22.98
2022-12-18T03:10:20.706Z,23.27
2022-12-18T03:14:39.995Z,26.45
2022-12-18T03:19:01.794Z,23.58
2022-12-18T03:23:26.104Z,22.10
2022-12-18T03:27:48.766Z,22.00
2022-12-18T03:32:11.454Z,23.85
2022-12-18T03:36:29.115Z,20.42
2022-12-18T03:41:09.980Z,21.88
2022-12-18T03:45:38.368Z,21.65
2022-12-18T03:50:07.168Z,21.05
2022-12-18T03:54:30.170Z,16.65
2022-12-18T03:58:49.301Z,18.50
2022-12-18T04:03:08.460Z,19.90
2022-12-18T04:07:26.149Z,19.38
2022-12-18T04:11:46.255Z,16.40
2022-12-18T04:16:03.707Z,20.23
2022-12-18T04:20:21.599Z,13.45
2022-12-18T04:24:38.725Z,15.60
2022-12-18T04:28:56.379Z,12.52
2022-12-18T04:33:14.620Z,16.13
2022-12-18T04:37:31.943Z,16.10
2022-12-18T04:41:49.082Z,17.95
2022-12-18T04:46:08.556Z,12.52
2022-12-18T04:50:25.797Z,17.35
2022-12-18T04:54:42.940Z,14.00
2022-12-18T04:59:00.170Z,16.15
2022-12-18T05:03:17.326Z,15.48
2022-12-18T05:07:34.575Z,16.33
2022-12-18T05:11:51.699Z,14.77
2022-12-18T05:16:09.133Z,13.85
2022-12-18T05:20:26.764Z,16.73
2022-12-18T05:24:44.699Z,10.88
2022-12-18T05:29:01.881Z,12.57
2022-12-18T05:33:20.143Z,17.48
2022-12-18T05:37:42.701Z,11.82
2022-12-18T05:42:00.661Z,13.48
2022-12-18T05:46:18.646Z,12.48
2022-12-18T05:50:40.169Z,11.45
2022-12-18T05:54:57.271Z,14.13
2022-12-18T05:59:14.382Z,13.65
2022-12-18T06:03:34.030Z,13.00
2022-12-18T06:07:51.433Z,13.02
2022-12-18T06:12:08.900Z,10.30
2022-12-18T06:16:26.909Z,10.95
2022-12-18T06:20:44.049Z,14.73
2022-12-18T06:25:01.352Z,9.80
2022-12-18T06:29:19.161Z,11.45
2022-12-18T06:33:36.817Z,19.85
2022-12-18T06:37:54.095Z,13.88
2022-12-18T06:42:11.199Z,11.95
2022-12-18T06:46:28.409Z,12.23
2022-12-18T06:50:45.647Z,12.32
2022-12-18T06:55:02.787Z,11.65
2022-12-18T06:59:20.026Z,8.93
2022-12-18T07:03:38.943Z,10.38
2022-12-18T07:07:56.536Z,8.75
2022-12-18T07:12:13.699Z,10.68
2022-12-18T07:16:31.000Z,8.18
2022-12-18T07:20:48.197Z,10.52
2022-12-18T07:25:07.250Z,10.07
2022-12-18T07:29:24.640Z,11.48
2022-12-18T07:33:43.528Z,9.77
2022-12-18T07:38:00.772Z,13.38
2022-12-18T07:42:33.187Z,10.90
2022-12-18T07:46:50.303Z,19.75
2022-12-18T07:51:08.370Z,19.67
2022-12-18T07:55:25.732Z,17.98
2022-12-18T07:59:43.136Z,15.55
2022-12-18T08:04:00.252Z,15.85
2022-12-18T08:08:17.379Z,12.95
2022-12-18T08:12:34.491Z,11.82
2022-12-18T08:16:52.215Z,10.70
2022-12-18T08:21:15.903Z,19.60
2022-12-18T08:25:33.016Z,14.07
2022-12-18T08:29:50.163Z,15.80
2022-12-18T08:34:07.286Z,11.43
2022-12-18T08:38:24.479Z,12.23
2022-12-18T08:43:00.681Z,12.77
2022-12-18T08:47:18.129Z,13.73
2022-12-18T08:51:35.553Z,32.45
2022-12-18T08:55:53.244Z,38.15
2022-12-18T09:00:11.056Z,20.40
2022-12-18T09:04:28.283Z,27.58
2022-12-18T09:08:46.684Z,18.00
2022-12-18T09:13:03.888Z,20.83
2022-12-18T09:21:42.140Z,22.27
2022-12-18T09:26:01.930Z,21.60
2022-12-18T09:34:36.147Z,36.78
2022-12-18T09:38:54.085Z,27.33
2022-12-18T09:43:21.063Z,24.92
2022-12-18T09:47:40.369Z,30.90
2022-12-18T09:52:25.180Z,27.63
2022-12-18T09:56:44.331Z,23.52
2022-12-18T10:01:01.616Z,21.45
2022-12-18T10:05:38.137Z,23.33
2022-12-18T10:10:08.038Z,24.50
2022-12-18T10:14:50.557Z,24.83
2022-12-18T10:19:10.426Z,34.15
2022-12-18T10:24:00.640Z,26.27
2022-12-18T10:28:19.776Z,26.08
2022-12-18T10:32:36.911Z,25.10
2022-12-18T10:36:54.732Z,18.88
2022-12-18T10:41:26.866Z,20.33
2022-12-18T10:46:01.126Z,22.90
2022-12-18T10:51:09.286Z,23.70
2022-12-18T10:55:18.312Z,20.45
2022-12-18T10:59:55.609Z,23.60
2022-12-18T11:04:18.730Z,23.40
2022-12-18T11:08:36.030Z,22.75
2022-12-18T11:12:53.375Z,19.17
2022-12-18T11:17:32.349Z,29.83
2022-12-18T11:21:49.820Z,19.88
2022-12-18T11:26:07.131Z,22.92
2022-12-18T11:30:33.536Z,23.52
2022-12-18T11:35:02.026Z,28.58
2022-12-18T11:39:40.223Z,25.27
2022-12-18T11:44:02.867Z,33.05
2022-12-18T11:48:33.914Z,24.33
2022-12-18T11:52:56.557Z,23.25
2022-12-18T11:57:30.127Z,26.58
2022-12-18T12:01:58.980Z,19.73
2022-12-18T12:06:23.635Z,26.98
2022-12-18T12:10:51.428Z,23.73
2022-12-18T12:15:28.293Z,22.90
2022-12-18T12:20:02.509Z,22.80
2022-12-18T12:24:41.467Z,23.25
2022-12-18T12:29:08.295Z,20.45
2022-12-18T12:34:13.798Z,19.70
2022-12-18T12:38:49.870Z,20.25
2022-12-18T12:43:35.782Z,21.98
2022-12-18T12:47:54.351Z,25.33
2022-12-18T12:52:29.909Z,24.05
2022-12-18T12:57:17.964Z,23.95
2022-12-18T13:01:42.403Z,26.08
2022-12-18T13:06:09.822Z,22.20
2022-12-18T13:10:32.949Z,21.42
2022-12-18T13:14:50.271Z,21.90
2022-12-18T13:23:39.851Z,21.98
2022-12-18T13:28:06.840Z,24.55
2022-12-18T13:32:26.215Z,22.60
2022-12-18T13:36:44.878Z,26.98
2022-12-18T13:41:23.597Z,33.60
2022-12-18T13:50:30.947Z,26.23
2022-12-18T13:54:58.608Z,23.20
2022-12-18T13:59:24.814Z,29.33
2022-12-18T14:03:42.382Z,24.67
2022-12-18T14:08:05.795Z,23.25
2022-12-18T14:12:49.110Z,24.27
2022-12-18T14:17:11.667Z,26.63
2022-12-18T14:21:30.960Z,28.23
2022-12-18T14:25:48.185Z,33.88
2022-12-18T14:30:25.536Z,30.60
2022-12-18T14:34:42.785Z,32.83
2022-12-18T14:39:00.270Z,33.53
2022-12-18T14:47:34.631Z,43.85
2022-12-18T14:51:59.820Z,36.03
2022-12-18T14:56:23.337Z,33.40
2022-12-18T15:00:43.060Z,34.30
2022-12-18T15:05:02.840Z,38.13
2022-12-18T15:09:24.490Z,29.55
2022-12-18T15:13:41.942Z,30.27
2022-12-18T15:18:00.990Z,29.73
2022-12-18T15:22:35.482Z,31.88
2022-12-18T15:26:52.738Z,46.25
2022-12-18T15:35:27.919Z,45.22
2022-12-18T15:39:45.126Z,34.50
2022-12-18T15:44:02.468Z,43.40
2022-12-18T15:48:23.679Z,54.30
2022-12-18T15:52:43.776Z,34.83
2022-12-18T15:57:19.670Z,43.03
2022-12-18T16:01:40.980Z,41.40
2022-12-18T16:06:01.257Z,51.78
2022-12-18T16:10:19.333Z,47.65
2022-12-18T16:14:36.482Z,48.92
2022-12-18T16:18:53.704Z,48.97
2022-12-18T16:23:10.953Z,42.83
2022-12-18T16:27:28.167Z,46.92
2022-12-18T16:31:45.763Z,43.03
2022-12-18T16:40:20.301Z,51.03
2022-12-18T16:44:37.602Z,55.80
2022-12-18T16:48:54.925Z,55.75
2022-12-18T16:53:12.127Z,55.78
2022-12-18T16:57:29.375Z,54.25
2022-12-18T17:01:47.358Z,56.22
2022-12-18T17:06:06.063Z,58.75
2022-12-18T17:10:23.316Z,57.92
2022-12-18T17:14:40.583Z,60.75
2022-12-18T17:18:57.874Z,52.70
2022-12-18T17:23:15.204Z,50.67
2022-12-18T17:27:32.459Z,55.03
2022-12-18T17:31:49.891Z,58.35
2022-12-18T17:36:07.713Z,59.55
2022-12-18T17:40:25.049Z,48.30
2022-12-18T17:44:42.934Z,44.17
2022-12-18T17:49:02.055Z,43.78
2022-12-18T17:53:21.015Z,41.72
2022-12-18T17:57:38.296Z,55.33
2022-12-18T18:01:55.642Z,49.10
2022-12-18T18:06:13.447Z,66.15
2022-12-18T18:10:30.791Z,62.42
2022-12-18T18:14:52.504Z,68.13
2022-12-18T18:19:13.204Z,59.75
2022-12-18T18:23:31.197Z,56.33
2022-12-18T18:27:48.471Z,57.10
2022-12-18T18:32:05.796Z,57.08
2022-12-18T18:36:23.798Z,58.75
2022-12-18T18:40:41.037Z,63.92
2022-12-18T18:44:58.388Z,57.80
2022-12-18T18:49:15.637Z,65.53
2022-12-18T18:53:38.437Z,53.83
2022-12-18T18:57:56.849Z,53.15
2022-12-18T19:02:15.644Z,124.68
2022-12-18T19:06:33.020Z,49.22
2022-12-18T19:10:57.652Z,62.53
2022-12-18T19:15:15.130Z,116.00
2022-12-18T19:19:32.579Z,59.78
2022-12-18T19:23:50.191Z,63.72
2022-12-18T19:32:33.914Z,67.30
2022-12-18T19:36:55.272Z,56.40
2022-12-18T19:41:17.832Z,65.53
2022-12-18T19:45:35.521Z,59.58
2022-12-18T19:49:52.889Z,98.55
2022-12-18T19:54:16.413Z,68.60
2022-12-18T19:58:34.311Z,80.82
2022-12-18T20:02:51.640Z,81.22
2022-12-18T20:07:08.866Z,82.85
2022-12-18T20:11:26.369Z,68.65
2022-12-18T20:15:45.450Z,46.45
2022-12-18T20:20:02.889Z,51.80
2022-12-18T20:24:20.084Z,44.97
2022-12-18T20:28:37.826Z,49.42
2022-12-18T20:32:57.696Z,42.38
2022-12-18T20:37:14.892Z,50.72
2022-12-18T20:41:38.076Z,251.80
2022-12-18T20:46:04.770Z,85.28
2022-12-18T20:50:21.941Z,77.82
2022-12-18T20:54:39.227Z,99.05
2022-12-18T20:58:57.560Z,98.07
2022-12-18T21:03:14.947Z,86.88
2022-12-18T21:07:32.264Z,83.50
2022-12-18T21:12:07.928Z,74.63
2022-12-18T21:16:27.481Z,68.95
2022-12-18T21:20:45.952Z,73.53
2022-12-18T21:25:04.099Z,65.13
2022-12-18T21:29:23.587Z,55.30
2022-12-18T21:33:40.924Z,61.03
2022-12-18T21:37:58.038Z,56.17
2022-12-18T21:42:33.731Z,55.22
2022-12-18T21:46:57.450Z,57.10
2022-12-18T21:51:17.036Z,56.75
2022-12-18T21:55:34.232Z,49.70
2022-12-18T21:59:51.365Z,58.97
2022-12-18T22:04:08.745Z,50.33
2022-12-18T22:08:26.342Z,56.17
2022-12-18T22:12:45.484Z,50.58
2022-12-18T22:17:03.254Z,49.25
2022-12-18T22:21:29.932Z,49.78
2022-12-18T22:25:47.057Z,42.33
2022-12-18T22:30:05.227Z,94.47
2022-12-18T22:34:23.303Z,85.63
2022-12-18T22:38:40.677Z,77.03
2022-12-18T22:42:57.790Z,60.95
2022-12-18T22:47:15.407Z,54.13
2022-12-18T22:51:32.588Z,70.05
2022-12-18T22:55:49.729Z,68.22
2022-12-18T23:00:08.538Z,66.53
2022-12-18T23:04:30.600Z,66.45
2022-12-18T23:08:56.186Z,68.97
2022-12-18T23:13:13.419Z,67.35
2022-12-18T23:17:30.564Z,72.03
2022-12-18T23:21:47.816Z,69.07
2022-12-18T23:26:08.036Z,67.33
2022-12-18T23:30:25.167Z,71.43
2022-12-18T23:34:42.347Z,63.37
2022-12-18T23:39:00.963Z,59.25
2022-12-18T23:43:18.070Z,58.97
2022-12-18T23:47:35.715Z,65.20
2022-12-18T23:51:54.754Z,56.92
2022-12-18T23:56:13.927Z,58.50
